TAF and METAR

Could not understand the following METAR

YPBO 171900Z AUTO 35007KT 9999 // NCD 29/15 Q1009
No TAF available for Paraburdoo Airport